Terminal Aerodrome Forecast
Issued by NWS

Home | Current Version | Previous Version | Text Only | Print | Product List | Glossary On
Versions: 1 2 3 4 5 6 7 8 9 10 11 12 13 14 15 16 17 18 19
000
FTUS42 KTBW 030500
TAFLAL
TAF
KLAL 030536Z 0306/0406 VRB03KT 5SM BR SCT005
     FM030800 VRB03KT 3SM BR BKN003
     FM031000 VRB03KT 1SM BR OVC003
     FM031500 10007KT P6SM SCT010 BKN020
     FM031700 12009KT P6SM SCT030 SCT250
     FM040000 11005KT P6SM SCT040 SCT250
      AMD NOT SKED 0306/0312=

USA.gov is the U.S. government's official web portal to all federal, state and local government web resources and services.